sensor_id;sensor_type;location;lat;lon;timestamp;P1;durP1;ratioP1;P2;durP2;ratioP2
24143;SDS011;12307;50.828;6.080;2023-09-30T00:02:15;1.80;;;1.52;;
24143;SDS011;12307;50.828;6.080;2023-09-30T00:04:41;2.17;;;1.50;;
24143;SDS011;12307;50.828;6.080;2023-09-30T00:07:07;1.73;;;1.05;;
24143;SDS011;12307;50.828;6.080;2023-09-30T00:09:33;1.67;;;1.08;;
24143;SDS011;12307;50.828;6.080;2023-09-30T00:11:58;2.20;;;1.30;;
24143;SDS011;12307;50.828;6.080;2023-09-30T00:14:24;2.55;;;1.30;;
24143;SDS011;12307;50.828;6.080;2023-09-30T00:16:52;1.67;;;1.20;;
24143;SDS011;12307;50.828;6.080;2023-09-30T00:19:18;1.77;;;1.00;;
24143;SDS011;12307;50.828;6.080;2023-09-30T00:21:43;1.73;;;1.30;;
24143;SDS011;12307;50.828;6.080;2023-09-30T00:24:09;1.30;;;1.20;;
24143;SDS011;12307;50.828;6.080;2023-09-30T00:26:35;1.88;;;1.20;;
24143;SDS011;12307;50.828;6.080;2023-09-30T00:29:01;1.83;;;1.15;;
24143;SDS011;12307;50.828;6.080;2023-09-30T00:31:29;1.40;;;1.08;;
24143;SDS011;12307;50.828;6.080;2023-09-30T00:33:56;2.00;;;1.30;;
24143;SDS011;12307;50.828;6.080;2023-09-30T00:36:22;4.28;;;1.55;;
24143;SDS011;12307;50.828;6.080;2023-09-30T00:38:48;1.58;;;1.38;;
24143;SDS011;12307;50.828;6.080;2023-09-30T00:41:14;1.70;;;1.20;;
24143;SDS011;12307;50.828;6.080;2023-09-30T00:43:39;2.25;;;1.30;;
24143;SDS011;12307;50.828;6.080;2023-09-30T00:46:06;1.92;;;1.10;;
24143;SDS011;12307;50.828;6.080;2023-09-30T00:48:43;1.98;;;1.50;;
24143;SDS011;12307;50.828;6.080;2023-09-30T00:51:10;1.23;;;1.10;;
24143;SDS011;12307;50.828;6.080;2023-09-30T00:53:36;2.28;;;1.25;;
24143;SDS011;12307;50.828;6.080;2023-09-30T00:56:02;1.58;;;1.30;;
24143;SDS011;12307;50.828;6.080;2023-09-30T00:58:29;1.63;;;1.20;;
24143;SDS011;12307;50.828;6.080;2023-09-30T01:00:56;1.52;;;1.08;;
24143;SDS011;12307;50.828;6.080;2023-09-30T01:03:23;1.90;;;1.10;;
24143;SDS011;12307;50.828;6.080;2023-09-30T01:05:49;1.35;;;1.05;;
24143;SDS011;12307;50.828;6.080;2023-09-30T01:08:16;2.00;;;1.20;;
24143;SDS011;12307;50.828;6.080;2023-09-30T01:10:42;2.10;;;1.40;;
24143;SDS011;12307;50.828;6.080;2023-09-30T01:13:09;1.42;;;1.08;;
24143;SDS011;12307;50.828;6.080;2023-09-30T01:15:34;1.50;;;1.17;;
24143;SDS011;12307;50.828;6.080;2023-09-30T01:18:02;2.10;;;1.40;;
24143;SDS011;12307;50.828;6.080;2023-09-30T01:20:28;1.58;;;1.23;;
24143;SDS011;12307;50.828;6.080;2023-09-30T01:22:55;2.00;;;1.25;;
24143;SDS011;12307;50.828;6.080;2023-09-30T01:25:22;1.83;;;1.27;;
24143;SDS011;12307;50.828;6.080;2023-09-30T01:27:48;2.15;;;1.42;;
24143;SDS011;12307;50.828;6.080;2023-09-30T01:30:16;2.22;;;1.20;;
24143;SDS011;12307;50.828;6.080;2023-09-30T01:32:43;1.23;;;1.10;;
24143;SDS011;12307;50.828;6.080;2023-09-30T01:35:09;1.75;;;1.30;;
24143;SDS011;12307;50.828;6.080;2023-09-30T01:37:35;1.70;;;1.27;;
24143;SDS011;12307;50.828;6.080;2023-09-30T01:40:02;2.08;;;1.40;;
24143;SDS011;12307;50.828;6.080;2023-09-30T01:42:33;1.75;;;1.33;;
24143;SDS011;12307;50.828;6.080;2023-09-30T01:44:59;1.98;;;1.20;;
24143;SDS011;12307;50.828;6.080;2023-09-30T01:47:24;1.92;;;1.40;;
24143;SDS011;12307;50.828;6.080;2023-09-30T01:49:50;2.50;;;1.33;;
24143;SDS011;12307;50.828;6.080;2023-09-30T01:52:16;2.22;;;1.15;;
24143;SDS011;12307;50.828;6.080;2023-09-30T01:54:42;2.35;;;1.33;;
24143;SDS011;12307;50.828;6.080;2023-09-30T01:57:09;1.67;;;1.20;;
24143;SDS011;12307;50.828;6.080;2023-09-30T01:59:35;1.52;;;1.23;;
24143;SDS011;12307;50.828;6.080;2023-09-30T02:02:00;1.63;;;1.13;;
24143;SDS011;12307;50.828;6.080;2023-09-30T02:04:27;1.95;;;1.33;;
24143;SDS011;12307;50.828;6.080;2023-09-30T02:06:54;1.42;;;1.00;;
24143;SDS011;12307;50.828;6.080;2023-09-30T02:09:20;1.77;;;1.17;;
24143;SDS011;12307;50.828;6.080;2023-09-30T02:11:46;1.63;;;1.13;;
24143;SDS011;12307;50.828;6.080;2023-09-30T02:14:13;1.48;;;1.10;;
24143;SDS011;12307;50.828;6.080;2023-09-30T02:16:39;1.65;;;1.10;;
24143;SDS011;12307;50.828;6.080;2023-09-30T02:19:05;2.08;;;1.30;;
24143;SDS011;12307;50.828;6.080;2023-09-30T02:21:32;1.52;;;1.20;;
24143;SDS011;12307;50.828;6.080;2023-09-30T02:23:58;1.48;;;1.10;;
24143;SDS011;12307;50.828;6.080;2023-09-30T02:26:23;1.38;;;1.10;;
24143;SDS011;12307;50.828;6.080;2023-09-30T02:28:50;2.10;;;1.45;;
24143;SDS011;12307;50.828;6.080;2023-09-30T02:31:17;1.63;;;1.30;;
24143;SDS011;12307;50.828;6.080;2023-09-30T02:33:43;1.23;;;1.08;;
24143;SDS011;12307;50.828;6.080;2023-09-30T02:36:09;1.95;;;1.30;;
24143;SDS011;12307;50.828;6.080;2023-09-30T02:38:34;1.13;;;1.02;;
24143;SDS011;12307;50.828;6.080;2023-09-30T02:41:02;2.65;;;1.42;;
24143;SDS011;12307;50.828;6.080;2023-09-30T02:43:28;1.65;;;1.10;;
24143;SDS011;12307;50.828;6.080;2023-09-30T02:45:54;1.63;;;1.30;;
24143;SDS011;12307;50.828;6.080;2023-09-30T02:48:21;1.77;;;1.25;;
24143;SDS011;12307;50.828;6.080;2023-09-30T02:50:47;1.48;;;1.38;;
24143;SDS011;12307;50.828;6.080;2023-09-30T02:53:13;1.75;;;1.40;;
24143;SDS011;12307;50.828;6.080;2023-09-30T02:55:38;1.70;;;1.48;;
24143;SDS011;12307;50.828;6.080;2023-09-30T02:58:04;2.05;;;1.50;;
24143;SDS011;12307;50.828;6.080;2023-09-30T03:00:30;2.05;;;1.48;;
24143;SDS011;12307;50.828;6.080;2023-09-30T03:02:59;1.33;;;1.23;;
24143;SDS011;12307;50.828;6.080;2023-09-30T03:05:28;1.98;;;1.20;;
24143;SDS011;12307;50.828;6.080;2023-09-30T03:07:55;1.98;;;1.33;;
24143;SDS011;12307;50.828;6.080;2023-09-30T03:10:21;1.52;;;1.17;;
24143;SDS011;12307;50.828;6.080;2023-09-30T03:12:51;1.48;;;1.10;;
24143;SDS011;12307;50.828;6.080;2023-09-30T03:15:18;1.60;;;1.35;;
24143;SDS011;12307;50.828;6.080;2023-09-30T03:17:44;1.42;;;1.33;;
24143;SDS011;12307;50.828;6.080;2023-09-30T03:20:10;1.40;;;1.17;;
24143;SDS011;12307;50.828;6.080;2023-09-30T03:22:40;1.75;;;1.40;;
24143;SDS011;12307;50.828;6.080;2023-09-30T03:25:08;2.55;;;1.27;;
24143;SDS011;12307;50.828;6.080;2023-09-30T03:27:34;2.03;;;1.33;;
24143;SDS011;12307;50.828;6.080;2023-09-30T03:30:01;1.98;;;1.38;;
24143;SDS011;12307;50.828;6.080;2023-09-30T03:32:27;1.73;;;1.33;;
24143;SDS011;12307;50.828;6.080;2023-09-30T03:34:54;1.55;;;1.40;;
24143;SDS011;12307;50.828;6.080;2023-09-30T03:37:24;2.10;;;1.33;;
24143;SDS011;12307;50.828;6.080;2023-09-30T03:39:53;1.88;;;1.35;;
24143;SDS011;12307;50.828;6.080;2023-09-30T03:42:19;1.63;;;1.27;;
24143;SDS011;12307;50.828;6.080;2023-09-30T03:44:44;1.73;;;1.30;;
24143;SDS011;12307;50.828;6.080;2023-09-30T03:47:10;2.00;;;1.48;;
24143;SDS011;12307;50.828;6.080;2023-09-30T03:49:36;1.75;;;1.40;;
24143;SDS011;12307;50.828;6.080;2023-09-30T03:52:03;2.08;;;1.40;;
24143;SDS011;12307;50.828;6.080;2023-09-30T03:54:29;2.08;;;1.60;;
24143;SDS011;12307;50.828;6.080;2023-09-30T03:56:56;1.50;;;1.40;;
24143;SDS011;12307;50.828;6.080;2023-09-30T03:59:22;1.65;;;1.30;;
24143;SDS011;12307;50.828;6.080;2023-09-30T04:01:48;1.40;;;1.25;;
24143;SDS011;12307;50.828;6.080;2023-09-30T04:04:14;2.05;;;1.48;;
24143;SDS011;12307;50.828;6.080;2023-09-30T04:06:39;2.28;;;1.58;;
24143;SDS011;12307;50.828;6.080;2023-09-30T04:09:05;1.40;;;1.30;;
24143;SDS011;12307;50.828;6.080;2023-09-30T04:11:37;2.03;;;1.50;;
24143;SDS011;12307;50.828;6.080;2023-09-30T04:14:05;1.70;;;1.48;;
24143;SDS011;12307;50.828;6.080;2023-09-30T04:16:33;1.35;;;1.25;;
24143;SDS011;12307;50.828;6.080;2023-09-30T04:18:59;2.40;;;1.52;;
24143;SDS011;12307;50.828;6.080;2023-09-30T04:21:26;1.42;;;1.30;;
24143;SDS011;12307;50.828;6.080;2023-09-30T04:23:53;2.05;;;1.40;;
24143;SDS011;12307;50.828;6.080;2023-09-30T04:26:19;2.13;;;1.67;;
24143;SDS011;12307;50.828;6.080;2023-09-30T04:28:44;2.03;;;1.40;;
24143;SDS011;12307;50.828;6.080;2023-09-30T04:31:11;2.22;;;1.42;;
24143;SDS011;12307;50.828;6.080;2023-09-30T04:33:38;2.00;;;1.60;;
24143;SDS011;12307;50.828;6.080;2023-09-30T04:36:05;1.70;;;1.50;;
24143;SDS011;12307;50.828;6.080;2023-09-30T04:38:33;1.88;;;1.27;;
24143;SDS011;12307;50.828;6.080;2023-09-30T04:40:58;1.48;;;1.30;;
24143;SDS011;12307;50.828;6.080;2023-09-30T04:43:25;2.03;;;1.40;;
24143;SDS011;12307;50.828;6.080;2023-09-30T04:45:54;1.65;;;1.30;;
24143;SDS011;12307;50.828;6.080;2023-09-30T04:48:22;1.50;;;1.40;;
24143;SDS011;12307;50.828;6.080;2023-09-30T04:50:48;1.40;;;1.27;;
24143;SDS011;12307;50.828;6.080;2023-09-30T04:53:14;1.73;;;1.50;;
24143;SDS011;12307;50.828;6.080;2023-09-30T04:55:42;2.22;;;1.67;;
24143;SDS011;12307;50.828;6.080;2023-09-30T04:58:08;1.77;;;1.40;;
24143;SDS011;12307;50.828;6.080;2023-09-30T05:00:34;1.90;;;1.50;;
24143;SDS011;12307;50.828;6.080;2023-09-30T05:03:00;2.08;;;1.48;;
24143;SDS011;12307;50.828;6.080;2023-09-30T05:05:27;1.70;;;1.48;;
24143;SDS011;12307;50.828;6.080;2023-09-30T05:07:53;1.85;;;1.38;;
24143;SDS011;12307;50.828;6.080;2023-09-30T05:10:19;1.85;;;1.45;;
24143;SDS011;12307;50.828;6.080;2023-09-30T05:12:45;2.63;;;1.60;;
24143;SDS011;12307;50.828;6.080;2023-09-30T05:15:11;1.52;;;1.40;;
24143;SDS011;12307;50.828;6.080;2023-09-30T05:17:38;1.52;;;1.40;;
24143;SDS011;12307;50.828;6.080;2023-09-30T05:20:04;1.88;;;1.63;;
24143;SDS011;12307;50.828;6.080;2023-09-30T05:22:33;1.60;;;1.50;;
24143;SDS011;12307;50.828;6.080;2023-09-30T05:24:59;1.77;;;1.33;;
24143;SDS011;12307;50.828;6.080;2023-09-30T05:27:25;1.20;;;1.10;;
24143;SDS011;12307;50.828;6.080;2023-09-30T05:29:52;2.17;;;1.50;;
24143;SDS011;12307;50.828;6.080;2023-09-30T05:32:17;2.13;;;1.50;;
24143;SDS011;12307;50.828;6.080;2023-09-30T05:34:43;1.40;;;1.30;;
24143;SDS011;12307;50.828;6.080;2023-09-30T05:37:09;1.52;;;1.42;;
24143;SDS011;12307;50.828;6.080;2023-09-30T05:39:36;1.88;;;1.63;;
24143;SDS011;12307;50.828;6.080;2023-09-30T05:42:02;1.50;;;1.40;;
24143;SDS011;12307;50.828;6.080;2023-09-30T05:44:28;1.90;;;1.50;;
24143;SDS011;12307;50.828;6.080;2023-09-30T05:46:54;1.58;;;1.42;;
24143;SDS011;12307;50.828;6.080;2023-09-30T05:49:20;2.22;;;1.60;;
24143;SDS011;12307;50.828;6.080;2023-09-30T05:51:46;1.30;;;1.20;;
24143;SDS011;12307;50.828;6.080;2023-09-30T05:54:11;1.75;;;1.58;;
24143;SDS011;12307;50.828;6.080;2023-09-30T05:56:38;1.75;;;1.50;;
24143;SDS011;12307;50.828;6.080;2023-09-30T05:59:07;1.73;;;1.50;;
24143;SDS011;12307;50.828;6.080;2023-09-30T06:01:33;1.75;;;1.60;;
24143;SDS011;12307;50.828;6.080;2023-09-30T06:03:59;1.98;;;1.52;;
24143;SDS011;12307;50.828;6.080;2023-09-30T06:06:25;1.92;;;1.65;;
24143;SDS011;12307;50.828;6.080;2023-09-30T06:08:51;1.98;;;1.60;;
24143;SDS011;12307;50.828;6.080;2023-09-30T06:11:16;1.83;;;1.63;;
24143;SDS011;12307;50.828;6.080;2023-09-30T06:13:44;1.45;;;1.35;;
24143;SDS011;12307;50.828;6.080;2023-09-30T06:16:11;1.88;;;1.45;;
24143;SDS011;12307;50.828;6.080;2023-09-30T06:18:36;1.48;;;1.38;;
24143;SDS011;12307;50.828;6.080;2023-09-30T06:21:03;1.85;;;1.50;;
24143;SDS011;12307;50.828;6.080;2023-09-30T06:23:29;2.00;;;1.80;;
24143;SDS011;12307;50.828;6.080;2023-09-30T06:25:55;1.77;;;1.40;;
24143;SDS011;12307;50.828;6.080;2023-09-30T06:28:21;1.60;;;1.45;;
24143;SDS011;12307;50.828;6.080;2023-09-30T06:30:52;1.88;;;1.50;;
24143;SDS011;12307;50.828;6.080;2023-09-30T06:33:18;1.48;;;1.38;;
24143;SDS011;12307;50.828;6.080;2023-09-30T06:35:43;1.77;;;1.63;;
24143;SDS011;12307;50.828;6.080;2023-09-30T06:38:15;1.60;;;1.40;;
24143;SDS011;12307;50.828;6.080;2023-09-30T06:40:42;1.40;;;1.30;;
24143;SDS011;12307;50.828;6.080;2023-09-30T06:43:08;1.15;;;1.02;;
24143;SDS011;12307;50.828;6.080;2023-09-30T06:45:34;1.70;;;1.35;;
24143;SDS011;12307;50.828;6.080;2023-09-30T06:48:06;1.60;;;1.50;;
24143;SDS011;12307;50.828;6.080;2023-09-30T06:50:31;1.60;;;1.50;;
24143;SDS011;12307;50.828;6.080;2023-09-30T06:52:57;1.33;;;1.20;;
24143;SDS011;12307;50.828;6.080;2023-09-30T06:55:24;1.50;;;1.30;;
24143;SDS011;12307;50.828;6.080;2023-09-30T06:57:52;1.52;;;1.25;;
24143;SDS011;12307;50.828;6.080;2023-09-30T07:00:17;2.05;;;1.55;;
24143;SDS011;12307;50.828;6.080;2023-09-30T07:02:43;1.50;;;1.40;;
24143;SDS011;12307;50.828;6.080;2023-09-30T07:05:11;2.45;;;1.73;;
24143;SDS011;12307;50.828;6.080;2023-09-30T07:07:39;1.38;;;1.10;;
24143;SDS011;12307;50.828;6.080;2023-09-30T07:10:08;1.50;;;1.35;;
24143;SDS011;12307;50.828;6.080;2023-09-30T07:12:34;1.92;;;1.30;;
24143;SDS011;12307;50.828;6.080;2023-09-30T07:15:00;1.20;;;1.10;;
24143;SDS011;12307;50.828;6.080;2023-09-30T07:17:27;1.23;;;1.13;;
24143;SDS011;12307;50.828;6.080;2023-09-30T07:19:53;1.85;;;1.50;;
24143;SDS011;12307;50.828;6.080;2023-09-30T07:22:20;1.48;;;1.30;;
24143;SDS011;12307;50.828;6.080;2023-09-30T07:24:46;1.58;;;1.20;;
24143;SDS011;12307;50.828;6.080;2023-09-30T07:27:12;1.30;;;1.20;;
24143;SDS011;12307;50.828;6.080;2023-09-30T07:29:38;1.42;;;1.15;;
24143;SDS011;12307;50.828;6.080;2023-09-30T07:32:05;1.40;;;1.30;;
24143;SDS011;12307;50.828;6.080;2023-09-30T07:34:31;1.20;;;1.10;;
24143;SDS011;12307;50.828;6.080;2023-09-30T07:36:56;1.40;;;1.30;;
24143;SDS011;12307;50.828;6.080;2023-09-30T07:39:23;1.15;;;1.02;;
24143;SDS011;12307;50.828;6.080;2023-09-30T07:41:49;1.30;;;1.20;;
24143;SDS011;12307;50.828;6.080;2023-09-30T07:44:15;1.10;;;1.00;;
24143;SDS011;12307;50.828;6.080;2023-09-30T07:46:40;1.30;;;0.88;;
24143;SDS011;12307;50.828;6.080;2023-09-30T07:49:07;0.85;;;0.85;;
24143;SDS011;12307;50.828;6.080;2023-09-30T07:51:33;1.10;;;1.00;;
24143;SDS011;12307;50.828;6.080;2023-09-30T07:53:59;0.90;;;0.90;;
24143;SDS011;12307;50.828;6.080;2023-09-30T07:56:26;0.95;;;0.95;;
24143;SDS011;12307;50.828;6.080;2023-09-30T07:58:52;0.80;;;0.80;;
24143;SDS011;12307;50.828;6.080;2023-09-30T08:01:17;1.10;;;1.00;;
24143;SDS011;12307;50.828;6.080;2023-09-30T08:03:43;0.90;;;0.90;;
24143;SDS011;12307;50.828;6.080;2023-09-30T08:06:09;1.35;;;0.90;;
24143;SDS011;12307;50.828;6.080;2023-09-30T08:08:34;1.20;;;1.00;;
24143;SDS011;12307;50.828;6.080;2023-09-30T08:11:00;0.80;;;0.80;;
24143;SDS011;12307;50.828;6.080;2023-09-30T08:13:27;0.95;;;0.88;;
24143;SDS011;12307;50.828;6.080;2023-09-30T08:15:57;0.85;;;0.85;;
24143;SDS011;12307;50.828;6.080;2023-09-30T08:18:23;1.00;;;0.90;;
24143;SDS011;12307;50.828;6.080;2023-09-30T08:20:49;0.80;;;0.70;;
24143;SDS011;12307;50.828;6.080;2023-09-30T08:23:14;0.60;;;0.60;;
24143;SDS011;12307;50.828;6.080;2023-09-30T08:25:40;0.93;;;0.90;;
24143;SDS011;12307;50.828;6.080;2023-09-30T08:28:06;0.93;;;0.90;;
24143;SDS011;12307;50.828;6.080;2023-09-30T08:30:33;0.95;;;0.80;;
24143;SDS011;12307;50.828;6.080;2023-09-30T08:32:59;0.70;;;0.60;;
24143;SDS011;12307;50.828;6.080;2023-09-30T08:35:25;0.70;;;0.70;;
24143;SDS011;12307;50.828;6.080;2023-09-30T08:37:51;0.80;;;0.70;;
24143;SDS011;12307;50.828;6.080;2023-09-30T08:40:19;0.70;;;0.70;;
24143;SDS011;12307;50.828;6.080;2023-09-30T08:42:45;1.00;;;0.70;;
24143;SDS011;12307;50.828;6.080;2023-09-30T08:45:16;1.02;;;0.70;;
24143;SDS011;12307;50.828;6.080;2023-09-30T08:47:44;0.57;;;0.57;;
24143;SDS011;12307;50.828;6.080;2023-09-30T08:50:11;0.50;;;0.50;;
24143;SDS011;12307;50.828;6.080;2023-09-30T08:52:38;0.70;;;0.60;;
24143;SDS011;12307;50.828;6.080;2023-09-30T08:55:06;0.70;;;0.70;;
24143;SDS011;12307;50.828;6.080;2023-09-30T08:57:33;0.70;;;0.70;;
24143;SDS011;12307;50.828;6.080;2023-09-30T09:00:02;0.55;;;0.52;;
24143;SDS011;12307;50.828;6.080;2023-09-30T09:02:29;0.50;;;0.50;;
24143;SDS011;12307;50.828;6.080;2023-09-30T09:04:56;0.60;;;0.60;;
24143;SDS011;12307;50.828;6.080;2023-09-30T09:07:23;0.60;;;0.60;;
24143;SDS011;12307;50.828;6.080;2023-09-30T09:10:05;0.70;;;0.60;;
24143;SDS011;12307;50.828;6.080;2023-09-30T09:12:33;1.10;;;0.70;;
24143;SDS011;12307;50.828;6.080;2023-09-30T09:14:59;0.75;;;0.68;;
24143;SDS011;12307;50.828;6.080;2023-09-30T09:17:25;0.50;;;0.50;;
24143;SDS011;12307;50.828;6.080;2023-09-30T09:20:07;0.52;;;0.50;;
24143;SDS011;12307;50.828;6.080;2023-09-30T09:22:38;0.70;;;0.60;;
24143;SDS011;12307;50.828;6.080;2023-09-30T09:25:05;0.52;;;0.52;;
24143;SDS011;12307;50.828;6.080;2023-09-30T09:27:33;0.63;;;0.63;;
24143;SDS011;12307;50.828;6.080;2023-09-30T09:30:17;0.63;;;0.60;;
24143;SDS011;12307;50.828;6.080;2023-09-30T09:33:00;0.50;;;0.50;;
24143;SDS011;12307;50.828;6.080;2023-09-30T09:35:28;0.57;;;0.50;;
24143;SDS011;12307;50.828;6.080;2023-09-30T09:37:55;0.70;;;0.60;;
24143;SDS011;12307;50.828;6.080;2023-09-30T09:40:22;0.77;;;0.70;;
24143;SDS011;12307;50.828;6.080;2023-09-30T09:42:51;0.60;;;0.60;;
24143;SDS011;12307;50.828;6.080;2023-09-30T09:45:20;0.70;;;0.70;;
24143;SDS011;12307;50.828;6.080;2023-09-30T09:47:47;0.50;;;0.50;;
24143;SDS011;12307;50.828;6.080;2023-09-30T09:50:13;1.00;;;0.80;;
24143;SDS011;12307;50.828;6.080;2023-09-30T09:52:41;0.75;;;0.70;;
24143;SDS011;12307;50.828;6.080;2023-09-30T09:55:10;0.70;;;0.70;;
24143;SDS011;12307;50.828;6.080;2023-09-30T09:57:36;0.50;;;0.50;;
24143;SDS011;12307;50.828;6.080;2023-09-30T10:00:03;0.70;;;0.68;;
24143;SDS011;12307;50.828;6.080;2023-09-30T10:02:36;0.82;;;0.70;;
24143;SDS011;12307;50.828;6.080;2023-09-30T10:05:04;0.70;;;0.70;;
24143;SDS011;12307;50.828;6.080;2023-09-30T10:07:33;1.10;;;0.80;;
24143;SDS011;12307;50.828;6.080;2023-09-30T10:10:05;0.70;;;0.70;;
24143;SDS011;12307;50.828;6.080;2023-09-30T10:12:35;0.60;;;0.60;;
24143;SDS011;12307;50.828;6.080;2023-09-30T10:15:16;0.70;;;0.70;;
24143;SDS011;12307;50.828;6.080;2023-09-30T10:18:01;1.08;;;0.85;;
24143;SDS011;12307;50.828;6.080;2023-09-30T10:20:28;0.68;;;0.68;;
24143;SDS011;12307;50.828;6.080;2023-09-30T10:25:47;0.80;;;0.80;;
24143;SDS011;12307;50.828;6.080;2023-09-30T10:28:31;0.57;;;0.55;;
24143;SDS011;12307;50.828;6.080;2023-09-30T10:31:07;1.10;;;0.82;;
24143;SDS011;12307;50.828;6.080;2023-09-30T10:33:35;1.00;;;0.80;;
24143;SDS011;12307;50.828;6.080;2023-09-30T10:36:01;0.80;;;0.70;;
24143;SDS011;12307;50.828;6.080;2023-09-30T10:38:38;0.82;;;0.77;;
24143;SDS011;12307;50.828;6.080;2023-09-30T10:41:07;0.80;;;0.80;;
24143;SDS011;12307;50.828;6.080;2023-09-30T10:43:34;0.82;;;0.70;;
24143;SDS011;12307;50.828;6.080;2023-09-30T10:46:01;0.90;;;0.82;;
24143;SDS011;12307;50.828;6.080;2023-09-30T10:48:34;0.70;;;0.70;;
24143;SDS011;12307;50.828;6.080;2023-09-30T10:51:00;1.00;;;0.93;;
24143;SDS011;12307;50.828;6.080;2023-09-30T10:53:35;0.80;;;0.80;;
24143;SDS011;12307;50.828;6.080;2023-09-30T10:56:07;0.95;;;0.80;;
24143;SDS011;12307;50.828;6.080;2023-09-30T10:58:40;0.80;;;0.80;;
24143;SDS011;12307;50.828;6.080;2023-09-30T11:01:06;1.00;;;0.90;;
24143;SDS011;12307;50.828;6.080;2023-09-30T11:03:32;0.93;;;0.85;;
24143;SDS011;12307;50.828;6.080;2023-09-30T11:05:58;1.45;;;0.80;;
24143;SDS011;12307;50.828;6.080;2023-09-30T11:08:24;0.95;;;0.85;;
24143;SDS011;12307;50.828;6.080;2023-09-30T11:10:54;0.80;;;0.80;;
24143;SDS011;12307;50.828;6.080;2023-09-30T11:13:22;0.82;;;0.70;;
24143;SDS011;12307;50.828;6.080;2023-09-30T11:15:59;0.90;;;0.73;;
24143;SDS011;12307;50.828;6.080;2023-09-30T11:18:27;1.10;;;1.00;;
24143;SDS011;12307;50.828;6.080;2023-09-30T11:21:02;0.95;;;0.85;;
24143;SDS011;12307;50.828;6.080;2023-09-30T11:23:32;0.80;;;0.80;;
24143;SDS011;12307;50.828;6.080;2023-09-30T11:25:58;1.08;;;0.93;;
24143;SDS011;12307;50.828;6.080;2023-09-30T11:28:34;0.60;;;0.60;;
24143;SDS011;12307;50.828;6.080;2023-09-30T11:31:01;0.88;;;0.77;;
24143;SDS011;12307;50.828;6.080;2023-09-30T11:33:28;0.85;;;0.80;;
24143;SDS011;12307;50.828;6.080;2023-09-30T11:35:55;1.02;;;0.93;;
24143;SDS011;12307;50.828;6.080;2023-09-30T11:38:23;0.70;;;0.70;;
24143;SDS011;12307;50.828;6.080;2023-09-30T11:40:57;0.82;;;0.80;;
24143;SDS011;12307;50.828;6.080;2023-09-30T11:43:26;0.70;;;0.70;;
24143;SDS011;12307;50.828;6.080;2023-09-30T11:45:52;0.95;;;0.80;;
24143;SDS011;12307;50.828;6.080;2023-09-30T11:48:28;0.73;;;0.70;;
24143;SDS011;12307;50.828;6.080;2023-09-30T11:50:54;1.02;;;0.90;;
24143;SDS011;12307;50.828;6.080;2023-09-30T11:53:24;0.82;;;0.80;;
24143;SDS011;12307;50.828;6.080;2023-09-30T11:55:50;0.80;;;0.75;;
24143;SDS011;12307;50.828;6.080;2023-09-30T11:58:21;0.80;;;0.80;;
24143;SDS011;12307;50.828;6.080;2023-09-30T12:00:48;0.70;;;0.70;;
24143;SDS011;12307;50.828;6.080;2023-09-30T12:03:17;0.98;;;0.90;;
24143;SDS011;12307;50.828;6.080;2023-09-30T12:05:43;1.42;;;1.00;;
24143;SDS011;12307;50.828;6.080;2023-09-30T12:08:10;0.80;;;0.80;;
24143;SDS011;12307;50.828;6.080;2023-09-30T12:10:36;1.00;;;0.90;;
24143;SDS011;12307;50.828;6.080;2023-09-30T12:13:02;0.93;;;0.82;;
24143;SDS011;12307;50.828;6.080;2023-09-30T12:15:28;1.23;;;0.90;;
24143;SDS011;12307;50.828;6.080;2023-09-30T12:17:55;1.33;;;1.00;;
24143;SDS011;12307;50.828;6.080;2023-09-30T12:20:21;1.25;;;1.00;;
24143;SDS011;12307;50.828;6.080;2023-09-30T12:22:46;0.98;;;0.90;;
24143;SDS011;12307;50.828;6.080;2023-09-30T12:25:13;1.35;;;1.00;;
24143;SDS011;12307;50.828;6.080;2023-09-30T12:27:39;0.77;;;0.70;;
24143;SDS011;12307;50.828;6.080;2023-09-30T12:30:05;0.90;;;0.90;;
24143;SDS011;12307;50.828;6.080;2023-09-30T12:32:32;1.33;;;1.00;;
24143;SDS011;12307;50.828;6.080;2023-09-30T12:34:59;1.17;;;0.98;;
24143;SDS011;12307;50.828;6.080;2023-09-30T12:37:24;1.00;;;0.80;;
24143;SDS011;12307;50.828;6.080;2023-09-30T12:39:50;0.88;;;0.80;;
24143;SDS011;12307;50.828;6.080;2023-09-30T12:42:16;0.63;;;0.63;;
24143;SDS011;12307;50.828;6.080;2023-09-30T12:44:42;1.23;;;0.80;;
24143;SDS011;12307;50.828;6.080;2023-09-30T12:47:08;1.00;;;0.90;;
24143;SDS011;12307;50.828;6.080;2023-09-30T12:49:33;1.00;;;0.90;;
24143;SDS011;12307;50.828;6.080;2023-09-30T12:52:00;0.82;;;0.80;;
24143;SDS011;12307;50.828;6.080;2023-09-30T12:54:26;0.93;;;0.85;;
24143;SDS011;12307;50.828;6.080;2023-09-30T12:56:52;0.80;;;0.80;;
24143;SDS011;12307;50.828;6.080;2023-09-30T12:59:18;1.48;;;0.93;;
24143;SDS011;12307;50.828;6.080;2023-09-30T13:01:44;0.73;;;0.68;;
24143;SDS011;12307;50.828;6.080;2023-09-30T13:04:11;1.13;;;1.00;;
24143;SDS011;12307;50.828;6.080;2023-09-30T13:06:37;1.15;;;0.95;;
24143;SDS011;12307;50.828;6.080;2023-09-30T13:09:04;0.95;;;0.88;;
24143;SDS011;12307;50.828;6.080;2023-09-30T13:11:30;0.80;;;0.80;;
24143;SDS011;12307;50.828;6.080;2023-09-30T13:13:55;1.10;;;1.00;;
24143;SDS011;12307;50.828;6.080;2023-09-30T13:16:21;0.98;;;0.90;;
24143;SDS011;12307;50.828;6.080;2023-09-30T13:18:47;1.02;;;0.93;;
24143;SDS011;12307;50.828;6.080;2023-09-30T13:21:13;1.05;;;0.90;;
24143;SDS011;12307;50.828;6.080;2023-09-30T13:23:39;0.98;;;0.88;;
24143;SDS011;12307;50.828;6.080;2023-09-30T13:26:06;0.95;;;0.93;;
24143;SDS011;12307;50.828;6.080;2023-09-30T13:28:32;1.20;;;1.00;;
24143;SDS011;12307;50.828;6.080;2023-09-30T13:30:58;1.23;;;0.90;;
24143;SDS011;12307;50.828;6.080;2023-09-30T13:33:24;1.00;;;0.90;;
24143;SDS011;12307;50.828;6.080;2023-09-30T13:35:49;0.98;;;0.90;;
24143;SDS011;12307;50.828;6.080;2023-09-30T13:38:15;1.02;;;0.90;;
24143;SDS011;12307;50.828;6.080;2023-09-30T13:40:41;1.30;;;0.82;;
24143;SDS011;12307;50.828;6.080;2023-09-30T13:43:08;0.70;;;0.70;;
24143;SDS011;12307;50.828;6.080;2023-09-30T13:45:34;1.00;;;0.90;;
24143;SDS011;12307;50.828;6.080;2023-09-30T13:48:00;1.58;;;1.05;;
24143;SDS011;12307;50.828;6.080;2023-09-30T13:50:25;1.00;;;0.90;;
24143;SDS011;12307;50.828;6.080;2023-09-30T13:52:51;1.45;;;1.08;;
24143;SDS011;12307;50.828;6.080;2023-09-30T13:55:17;1.42;;;1.02;;
24143;SDS011;12307;50.828;6.080;2023-09-30T13:57:45;1.15;;;0.90;;
24143;SDS011;12307;50.828;6.080;2023-09-30T14:00:13;1.10;;;1.00;;
24143;SDS011;12307;50.828;6.080;2023-09-30T14:02:40;1.08;;;0.98;;
24143;SDS011;12307;50.828;6.080;2023-09-30T14:05:06;1.27;;;0.90;;
24143;SDS011;12307;50.828;6.080;2023-09-30T14:07:35;1.40;;;1.10;;
24143;SDS011;12307;50.828;6.080;2023-09-30T14:10:01;1.10;;;0.82;;
24143;SDS011;12307;50.828;6.080;2023-09-30T14:12:27;0.80;;;0.80;;
24143;SDS011;12307;50.828;6.080;2023-09-30T14:14:53;1.05;;;0.90;;
24143;SDS011;12307;50.828;6.080;2023-09-30T14:17:20;1.05;;;0.85;;
24143;SDS011;12307;50.828;6.080;2023-09-30T14:19:45;1.05;;;0.95;;
24143;SDS011;12307;50.828;6.080;2023-09-30T14:22:11;1.08;;;0.98;;
24143;SDS011;12307;50.828;6.080;2023-09-30T14:24:37;1.13;;;1.00;;
24143;SDS011;12307;50.828;6.080;2023-09-30T14:27:03;1.08;;;0.90;;
24143;SDS011;12307;50.828;6.080;2023-09-30T14:29:29;1.10;;;1.00;;
24143;SDS011;12307;50.828;6.080;2023-09-30T14:31:55;1.13;;;1.00;;
24143;SDS011;12307;50.828;6.080;2023-09-30T14:34:23;0.98;;;0.88;;
24143;SDS011;12307;50.828;6.080;2023-09-30T14:36:49;1.30;;;1.10;;
24143;SDS011;12307;50.828;6.080;2023-09-30T14:39:15;1.20;;;1.00;;
24143;SDS011;12307;50.828;6.080;2023-09-30T14:41:41;1.00;;;0.90;;
24143;SDS011;12307;50.828;6.080;2023-09-30T14:44:07;1.52;;;1.25;;
24143;SDS011;12307;50.828;6.080;2023-09-30T14:46:33;1.05;;;0.95;;
24143;SDS011;12307;50.828;6.080;2023-09-30T14:48:58;1.52;;;1.10;;
24143;SDS011;12307;50.828;6.080;2023-09-30T14:51:26;1.50;;;1.00;;